CST,Max TemperatureF,Mean TemperatureF,Min TemperatureF,Max Dew PointF,MeanDew PointF,Min DewpointF,Max Humidity, Mean Humidity, Min Humidity, Max Sea Level PressureIn, Mean Sea Level PressureIn, Min Sea Level PressureIn, Max VisibilityMiles, Mean VisibilityMiles, Min VisibilityMiles, Max Wind SpeedMPH, Mean Wind SpeedMPH, Max Gust SpeedMPH,PrecipitationIn, CloudCover, Events, WindDirDegrees
2012-12-1,54,44,33,48,40,30,87,82,74,29.97,29.83,29.73,5,3,0,14,5,18,0.00,6,Fog,193
2012-12-2,64,46,28,44,34,25,90,72,30,30.01,29.89,29.77,10,6,0,14,3,,0.00,2,Fog,165
2012-12-3,61,48,33,51,34,17,86,58,20,30.05,29.78,29.59,10,8,2,23,10,32,0.00,3,,237
2012-12-4,53,39,25,24,18,12,75,50,19,30.34,30.20,30.05,10,10,10,9,3,,0.00,0,,340
2012-12-5,53,40,26,22,17,12,58,39,23,30.36,30.08,29.83,10,10,10,22,10,31,0.00,1,,154
2012-12-6,54,48,40,35,26,12,68,47,18,30.01,29.91,29.81,10,10,10,21,12,28,0.01,6,Rain,310
2012-12-7,40,34,29,28,24,20,84,67,51,30.01,29.97,29.93,10,8,1,9,5,,0.00,8,Snow,42
2012-12-8,36,30,23,31,26,20,86,80,67,30.02,29.95,29.85,10,6,0,17,4,24,0.00,7,Fog-Snow,130
2012-12-9,37,26,16,33,20,5,83,73,61,30.05,29.89,29.80,10,8,4,24,13,36,0.00,8,Snow,266
2012-12-10,26,14,3,7,2,-5,66,53,34,30.04,29.95,29.84,10,10,10,17,9,26,0.00,2,,253
2012-12-11,41,32,22,22,18,8,77,63,35,29.94,29.90,29.83,10,10,10,16,6,20,0.00,2,,245
2012-12-12,54,40,27,17,8,-5,64,32,9,29.93,29.89,29.84,10,10,10,28,12,36,0.00,0,,185
2012-12-13,48,36,24,21,14,9,78,41,24,30.10,29.98,29.89,10,10,7,16,9,21,0.00,0,,235
2012-12-14,54,38,22,32,23,16,79,56,27,30.08,29.88,29.61,10,9,5,16,4,22,0.00,1,,141
2012-12-15,47,40,34,41,37,30,87,82,57,29.68,29.55,29.48,10,6,2,16,6,26,0.25,8,Rain-Snow,337
2012-12-16,34,30,25,30,22,19,85,75,69,29.82,29.76,29.68,10,9,3,12,7,,0.00,7,,345
2012-12-17,33,29,25,29,25,20,87,80,75,29.77,29.70,29.62,10,7,3,8,4,,0.00,8,Snow,129
2012-12-18,35,31,27,31,28,23,89,83,77,29.84,29.65,29.48,7,4,1,12,7,17,0.00,7,,201
2012-12-19,41,33,25,31,26,21,87,78,58,29.95,29.90,29.84,10,5,1,18,4,34,0.00,5,Snow,42
2012-12-20,27,21,14,22,13,6,83,71,63,30.16,29.99,29.86,10,6,1,25,16,33,0.00,5,Snow,337
2012-12-21,25,13,1,14,6,-5,78,67,51,30.30,30.23,30.16,10,10,5,9,3,,0.00,0,,178
2012-12-22,32,23,14,21,13,7,75,66,58,30.15,30.00,29.92,10,10,10,14,7,22,0.00,0,,286
2012-12-23,22,16,11,18,11,5,80,76,71,30.06,30.02,29.97,10,7,5,10,5,,0.00,5,Snow,29
2012-12-24,19,11,3,14,5,-6,77,66,56,30.29,30.10,29.98,10,8,2,15,10,25,0.00,4,Snow,343
2012-12-25,15,8,2,4,-2,-7,67,64,58,30.47,30.39,30.29,10,10,10,15,9,17,0.00,0,,3
2012-12-26,21,11,1,12,2,-6,78,64,45,30.36,30.25,30.15,10,10,10,9,3,,0.00,2,,42
2012-12-27,23,16,10,18,13,4,78,75,72,30.18,30.09,30.01,10,7,1,12,5,,0.00,7,Snow,89
2012-12-28,25,18,11,18,15,6,81,77,69,30.08,30.01,29.96,10,5,2,10,5,,0.00,8,Snow,20
2012-12-29,18,10,1,14,7,-6,83,78,70,30.19,30.14,30.07,10,5,2,10,6,,0.00,5,Snow,269
2012-12-30,37,18,0,23,9,-6,83,67,52,30.19,30.05,29.89,10,10,0,20,4,28,0.00,0,Snow,232
2012-12-31,23,13,1,16,8,-6,77,67,56,30.26,30.18,30.08,10,10,10,14,8,18,0.00,3,,357